createdAt,value
2023-10-06T00:00:32.742Z,1.10
2023-10-06T00:03:07.551Z,0.95
2023-10-06T00:05:35.993Z,1.23
2023-10-06T00:08:09.541Z,1.15
2023-10-06T00:10:37.458Z,0.82
2023-10-06T00:13:07.146Z,1.10
2023-10-06T00:15:41.128Z,1.05
2023-10-06T00:18:10.090Z,0.73
2023-10-06T00:20:50.519Z,0.80
2023-10-06T00:23:23.090Z,0.70
2023-10-06T00:25:56.501Z,0.67
2023-10-06T00:28:28.258Z,1.00
2023-10-06T00:30:58.270Z,0.70
2023-10-06T00:33:38.682Z,0.90
2023-10-06T00:36:14.407Z,0.77
2023-10-06T00:41:45.724Z,0.82
2023-10-06T00:44:13.504Z,0.60
2023-10-06T00:46:43.473Z,0.75
2023-10-06T00:49:11.179Z,0.60
2023-10-06T00:51:42.656Z,0.40
2023-10-06T00:54:10.452Z,0.70
2023-10-06T00:56:39.942Z,0.77
2023-10-06T00:59:07.847Z,0.80
2023-10-06T01:01:36.461Z,0.98
2023-10-06T01:04:10.075Z,0.40
2023-10-06T01:06:40.317Z,0.75
2023-10-06T01:09:13.497Z,0.98
2023-10-06T01:11:44.725Z,0.60
2023-10-06T01:14:15.569Z,0.50
2023-10-06T01:16:44.413Z,0.63
2023-10-06T01:19:38.738Z,0.63
2023-10-06T01:22:23.345Z,0.50
2023-10-06T01:24:51.335Z,0.55
2023-10-06T01:27:20.659Z,0.80
2023-10-06T01:29:52.997Z,0.60
2023-10-06T01:32:21.284Z,0.65
2023-10-06T01:34:51.787Z,0.60
2023-10-06T01:37:19.840Z,0.45
2023-10-06T01:39:49.826Z,0.57
2023-10-06T01:42:25.881Z,0.47
2023-10-06T01:44:53.597Z,0.60
2023-10-06T01:47:22.612Z,0.60
2023-10-06T01:49:50.299Z,0.88
2023-10-06T01:52:20.791Z,0.52
2023-10-06T01:54:49.030Z,0.70
2023-10-06T01:57:17.685Z,0.88
2023-10-06T01:59:45.408Z,0.60
2023-10-06T02:02:14.717Z,0.85
2023-10-06T02:04:47.009Z,0.50
2023-10-06T02:07:15.327Z,0.73
2023-10-06T02:09:44.561Z,1.60
2023-10-06T02:12:14.248Z,0.60
2023-10-06T02:14:42.426Z,0.40
2023-10-06T02:17:13.315Z,0.50
2023-10-06T02:19:43.154Z,0.80
2023-10-06T02:22:12.408Z,0.90
2023-10-06T02:24:40.733Z,1.17
2023-10-06T02:27:09.611Z,0.60
2023-10-06T02:29:37.170Z,0.50
2023-10-06T02:32:08.652Z,0.83
2023-10-06T02:34:37.787Z,0.73
2023-10-06T02:37:07.490Z,0.38
2023-10-06T02:39:38.134Z,0.68
2023-10-06T02:42:10.937Z,0.60
2023-10-06T02:44:40.147Z,0.50
2023-10-06T02:47:11.793Z,0.68
2023-10-06T02:49:49.865Z,0.68
2023-10-06T02:52:22.206Z,0.63
2023-10-06T02:55:06.004Z,0.80
2023-10-06T02:57:37.467Z,0.47
2023-10-06T03:00:30.138Z,0.47
2023-10-06T03:03:03.932Z,0.55
2023-10-06T03:05:35.426Z,0.70
2023-10-06T03:08:10.633Z,0.50
2023-10-06T03:10:46.278Z,0.50
2023-10-06T03:13:18.082Z,0.82
2023-10-06T03:15:48.825Z,0.47
2023-10-06T03:18:18.931Z,0.70
2023-10-06T03:21:14.129Z,0.77
2023-10-06T03:23:59.357Z,0.67
2023-10-06T03:26:32.018Z,0.50
2023-10-06T03:29:04.574Z,0.60
2023-10-06T03:31:48.465Z,0.30
2023-10-06T03:34:21.585Z,0.63
2023-10-06T03:36:58.946Z,0.60
2023-10-06T03:39:31.096Z,0.40
2023-10-06T03:42:05.198Z,0.70
2023-10-06T03:44:32.982Z,0.50
2023-10-06T03:47:01.917Z,0.60
2023-10-06T03:49:35.019Z,0.70
2023-10-06T03:52:10.708Z,0.60
2023-10-06T03:54:38.860Z,0.90
2023-10-06T03:57:06.646Z,0.60
2023-10-06T03:59:34.300Z,0.77
2023-10-06T04:02:04.458Z,0.40
2023-10-06T04:04:32.364Z,0.90
2023-10-06T04:06:59.959Z,0.40
2023-10-06T04:09:32.136Z,0.82
2023-10-06T04:12:02.739Z,0.50
2023-10-06T04:14:33.189Z,0.63
2023-10-06T04:17:02.784Z,0.70
2023-10-06T04:19:30.603Z,0.60
2023-10-06T04:21:58.542Z,0.57
2023-10-06T04:24:26.197Z,0.60
2023-10-06T04:26:53.872Z,0.43
2023-10-06T04:29:22.079Z,0.47
2023-10-06T04:31:50.319Z,0.65
2023-10-06T04:34:18.082Z,0.45
2023-10-06T04:36:45.751Z,0.52
2023-10-06T04:39:17.871Z,0.40
2023-10-06T04:41:45.585Z,0.43
2023-10-06T04:44:13.967Z,0.57
2023-10-06T04:46:41.870Z,0.40
2023-10-06T04:49:09.734Z,0.40
2023-10-06T04:51:37.630Z,0.40
2023-10-06T04:56:36.863Z,0.40
2023-10-06T04:59:04.534Z,0.50
2023-10-06T05:01:32.550Z,0.40
2023-10-06T05:04:00.530Z,0.50
2023-10-06T05:06:28.394Z,0.32
2023-10-06T05:08:56.024Z,0.40
2023-10-06T05:11:25.011Z,0.45
2023-10-06T05:13:54.910Z,0.60
2023-10-06T05:16:25.014Z,0.50
2023-10-06T05:18:53.191Z,0.50
2023-10-06T05:21:21.795Z,0.40
2023-10-06T05:23:49.957Z,0.77
2023-10-06T05:26:20.279Z,1.02
2023-10-06T05:28:48.492Z,0.50
2023-10-06T05:31:16.362Z,0.82
2023-10-06T05:33:43.988Z,0.40
2023-10-06T05:36:13.032Z,0.40
2023-10-06T05:38:41.524Z,0.60
2023-10-06T05:41:13.356Z,0.40
2023-10-06T05:43:42.478Z,0.50
2023-10-06T05:46:11.401Z,0.60
2023-10-06T05:48:40.015Z,0.40
2023-10-06T05:51:11.384Z,0.45
2023-10-06T05:53:41.656Z,0.60
2023-10-06T05:56:09.786Z,0.40
2023-10-06T05:58:42.088Z,0.82
2023-10-06T06:01:20.518Z,0.98
2023-10-06T06:03:49.039Z,0.55
2023-10-06T06:06:17.938Z,0.90
2023-10-06T06:08:49.554Z,0.70
2023-10-06T06:11:18.313Z,1.05
2023-10-06T06:13:52.728Z,0.40
2023-10-06T06:16:23.793Z,0.70
2023-10-06T06:18:52.297Z,0.50
2023-10-06T06:21:26.350Z,0.43
2023-10-06T06:23:57.358Z,0.45
2023-10-06T06:26:26.334Z,0.50
2023-10-06T06:28:54.785Z,0.47
2023-10-06T06:31:22.988Z,0.40
2023-10-06T06:33:58.344Z,0.43
2023-10-06T06:36:27.978Z,0.60
2023-10-06T06:38:55.832Z,0.70
2023-10-06T06:44:20.876Z,0.50
2023-10-06T06:46:48.658Z,0.60
2023-10-06T06:49:16.299Z,0.70
2023-10-06T06:51:43.955Z,0.50
2023-10-06T06:54:11.534Z,0.80
2023-10-06T06:56:39.513Z,0.53
2023-10-06T06:59:09.153Z,0.50
2023-10-06T07:01:40.346Z,0.45
2023-10-06T07:04:09.212Z,0.40
2023-10-06T07:06:36.816Z,0.30
2023-10-06T07:09:14.123Z,0.50
2023-10-06T07:11:45.882Z,0.60
2023-10-06T07:14:15.785Z,0.50
2023-10-06T07:16:44.449Z,0.60
2023-10-06T07:19:15.863Z,0.40
2023-10-06T07:21:43.666Z,0.60
2023-10-06T07:24:14.899Z,0.40
2023-10-06T07:26:44.893Z,0.50
2023-10-06T07:29:12.821Z,0.52
2023-10-06T07:31:40.627Z,0.70
2023-10-06T07:34:10.867Z,0.60
2023-10-06T07:36:39.081Z,0.50
2023-10-06T07:39:10.049Z,0.40
2023-10-06T07:41:38.079Z,0.50
2023-10-06T07:44:06.690Z,0.90
2023-10-06T07:46:35.218Z,0.50
2023-10-06T07:49:02.856Z,0.40
2023-10-06T07:51:30.972Z,0.50
2023-10-06T07:54:00.549Z,0.50
2023-10-06T07:56:28.196Z,0.95
2023-10-06T07:58:55.945Z,0.50
2023-10-06T08:01:23.638Z,0.60
2023-10-06T08:03:52.032Z,0.50
2023-10-06T08:06:19.753Z,0.43
2023-10-06T08:08:49.653Z,0.60
2023-10-06T08:11:18.774Z,1.13
2023-10-06T08:13:47.782Z,0.40
2023-10-06T08:16:15.425Z,0.80
2023-10-06T08:18:43.784Z,0.40
2023-10-06T08:21:12.461Z,0.50
2023-10-06T08:23:40.638Z,0.50
2023-10-06T08:26:15.213Z,0.40
2023-10-06T08:28:43.211Z,0.40
2023-10-06T08:31:17.540Z,0.32
2023-10-06T08:33:47.405Z,0.45
2023-10-06T08:36:15.465Z,0.40
2023-10-06T08:38:47.816Z,0.52
2023-10-06T08:41:17.250Z,0.50
2023-10-06T08:43:48.288Z,0.60
2023-10-06T08:46:17.170Z,0.43
2023-10-06T08:48:46.678Z,0.50
2023-10-06T08:51:16.054Z,0.50
2023-10-06T08:53:46.258Z,0.50
2023-10-06T08:56:16.677Z,0.30
2023-10-06T08:58:45.636Z,0.60
2023-10-06T09:01:14.813Z,0.43
2023-10-06T09:03:42.729Z,0.70
2023-10-06T09:06:13.110Z,0.43
2023-10-06T09:08:43.482Z,0.40
2023-10-06T09:11:11.516Z,0.30
2023-10-06T09:13:39.689Z,0.50
2023-10-06T09:16:11.620Z,0.50
2023-10-06T09:18:42.645Z,0.30
2023-10-06T09:21:20.393Z,0.52
2023-10-06T09:23:50.713Z,0.30
2023-10-06T09:26:30.902Z,0.30
2023-10-06T09:29:03.130Z,0.20
2023-10-06T09:31:45.788Z,0.22
2023-10-06T09:34:25.333Z,0.30
2023-10-06T09:36:53.824Z,0.30
2023-10-06T09:39:34.668Z,0.30
2023-10-06T09:42:02.917Z,0.28
2023-10-06T09:44:31.368Z,0.47
2023-10-06T09:47:02.439Z,0.30
2023-10-06T09:49:33.311Z,0.40
2023-10-06T09:52:04.847Z,0.40
2023-10-06T09:54:32.992Z,0.55
2023-10-06T09:57:01.450Z,0.57
2023-10-06T09:59:33.257Z,0.40
2023-10-06T10:02:06.448Z,0.50
2023-10-06T10:04:35.944Z,0.50
2023-10-06T10:07:04.318Z,0.30
2023-10-06T10:09:36.600Z,0.32
2023-10-06T10:12:15.092Z,0.47
2023-10-06T10:15:01.102Z,0.43
2023-10-06T10:18:24.132Z,0.40
2023-10-06T10:20:52.885Z,0.30
2023-10-06T10:23:21.640Z,0.40
2023-10-06T10:25:49.549Z,0.47
2023-10-06T10:28:20.846Z,0.50
2023-10-06T10:30:58.784Z,0.50
2023-10-06T10:33:34.588Z,0.40
2023-10-06T10:36:14.439Z,0.50
2023-10-06T10:38:43.354Z,0.50
2023-10-06T10:41:12.304Z,0.40
2023-10-06T10:43:42.651Z,0.60
2023-10-06T10:46:10.477Z,0.50
2023-10-06T10:48:49.097Z,0.60
2023-10-06T10:51:18.855Z,0.68
2023-10-06T10:53:49.196Z,0.57
2023-10-06T10:56:20.318Z,0.60
2023-10-06T10:58:51.047Z,0.40
2023-10-06T11:01:25.558Z,0.70
2023-10-06T11:04:14.602Z,0.57
2023-10-06T11:06:46.352Z,0.65
2023-10-06T11:09:28.218Z,0.70
2023-10-06T11:14:39.109Z,0.47
2023-10-06T11:17:06.973Z,0.63
2023-10-06T11:19:38.110Z,0.52
2023-10-06T11:22:14.909Z,0.57
2023-10-06T11:24:42.857Z,0.45
2023-10-06T11:27:23.103Z,0.57
2023-10-06T11:29:56.225Z,0.45
2023-10-06T11:32:24.982Z,0.50
2023-10-06T11:34:52.798Z,0.40
2023-10-06T11:37:25.602Z,0.40
2023-10-06T11:39:55.108Z,0.50
2023-10-06T11:42:25.877Z,0.50
2023-10-06T11:44:55.463Z,0.40
2023-10-06T11:47:29.373Z,0.50
2023-10-06T11:50:02.112Z,0.50
2023-10-06T11:52:31.289Z,0.20
2023-10-06T11:55:02.006Z,0.30
2023-10-06T11:57:49.040Z,0.30
2023-10-06T12:00:18.843Z,0.30
2023-10-06T12:02:51.610Z,0.25
2023-10-06T12:05:20.244Z,0.40
2023-10-06T12:07:54.041Z,0.25
2023-10-06T12:10:22.534Z,0.50
2023-10-06T12:12:53.751Z,0.20
2023-10-06T12:15:21.716Z,0.10
2023-10-06T12:17:51.883Z,0.40
2023-10-06T12:20:20.430Z,0.47
2023-10-06T12:22:48.385Z,0.40
2023-10-06T12:25:24.460Z,0.20
2023-10-06T12:27:52.751Z,0.28
2023-10-06T12:30:20.755Z,0.40
2023-10-06T12:32:48.631Z,0.30
2023-10-06T12:35:19.871Z,0.30
2023-10-06T12:37:48.507Z,0.30
2023-10-06T12:40:17.763Z,0.20
2023-10-06T12:42:45.828Z,0.22
2023-10-06T12:45:19.284Z,0.20
2023-10-06T12:47:51.264Z,0.30
2023-10-06T12:50:22.427Z,0.20
2023-10-06T12:52:53.632Z,0.20
2023-10-06T12:55:28.747Z,0.20
2023-10-06T12:57:56.357Z,0.30
2023-10-06T13:00:24.048Z,0.30
2023-10-06T13:02:52.049Z,0.20
2023-10-06T13:08:11.156Z,0.30
2023-10-06T13:10:38.969Z,0.30
2023-10-06T13:13:07.645Z,0.20
2023-10-06T13:15:35.347Z,0.30
2023-10-06T13:18:03.146Z,0.20
2023-10-06T13:20:31.000Z,0.35
2023-10-06T13:22:58.702Z,0.60
2023-10-06T13:25:28.762Z,0.43
2023-10-06T13:27:56.465Z,0.50
2023-10-06T13:30:25.598Z,0.90
2023-10-06T13:32:54.830Z,0.80
2023-10-06T13:35:22.872Z,0.80
2023-10-06T13:37:51.723Z,0.90
2023-10-06T13:40:19.645Z,1.10
2023-10-06T13:42:51.505Z,0.50
2023-10-06T13:45:26.652Z,0.40
2023-10-06T13:47:56.357Z,0.30
2023-10-06T13:50:28.643Z,0.30
2023-10-06T13:52:57.094Z,0.30
2023-10-06T13:55:25.772Z,0.30
2023-10-06T13:57:56.679Z,0.50
2023-10-06T14:00:33.489Z,0.40
2023-10-06T14:03:03.110Z,0.20
2023-10-06T14:05:34.447Z,0.30
2023-10-06T14:08:05.923Z,0.40
2023-10-06T14:10:37.343Z,0.50
2023-10-06T14:13:17.953Z,0.60
2023-10-06T14:16:06.774Z,0.50
2023-10-06T14:18:34.538Z,0.60
2023-10-06T14:21:07.464Z,0.52
2023-10-06T14:23:41.179Z,0.30
2023-10-06T14:26:11.419Z,0.30
2023-10-06T14:28:43.594Z,0.20
2023-10-06T14:31:21.120Z,0.30
2023-10-06T14:33:49.346Z,0.30
2023-10-06T14:36:20.147Z,0.20
2023-10-06T14:38:48.523Z,0.30
2023-10-06T14:41:20.709Z,0.20
2023-10-06T14:44:09.328Z,0.30
2023-10-06T14:46:38.878Z,0.20
2023-10-06T14:49:15.570Z,0.28
2023-10-06T14:51:45.228Z,0.30
2023-10-06T14:54:12.933Z,0.20
2023-10-06T14:56:41.222Z,0.30
2023-10-06T14:59:12.129Z,0.20
2023-10-06T15:01:41.796Z,0.30
2023-10-06T15:04:14.535Z,0.20
2023-10-06T15:06:42.692Z,0.25
2023-10-06T15:09:19.212Z,0.30
2023-10-06T15:11:48.216Z,0.30
2023-10-06T15:14:16.277Z,0.20
2023-10-06T15:16:45.276Z,0.20
2023-10-06T15:19:15.376Z,0.25
2023-10-06T15:21:45.509Z,0.30
2023-10-06T15:24:15.745Z,0.30
2023-10-06T15:26:46.338Z,0.20
2023-10-06T15:29:15.121Z,0.20
2023-10-06T15:31:43.413Z,0.63
2023-10-06T15:34:11.172Z,0.37
2023-10-06T15:36:41.403Z,0.30
2023-10-06T15:39:18.337Z,0.20
2023-10-06T15:41:47.381Z,0.30
2023-10-06T15:44:16.229Z,0.30
2023-10-06T15:46:44.487Z,0.30
2023-10-06T15:49:20.592Z,0.20
2023-10-06T15:51:49.038Z,0.30
2023-10-06T15:54:17.420Z,0.20
2023-10-06T15:56:47.514Z,0.30
2023-10-06T15:59:16.448Z,0.20
2023-10-06T16:01:46.627Z,0.25
2023-10-06T16:04:15.689Z,0.28
2023-10-06T16:06:47.164Z,0.20
2023-10-06T16:09:18.326Z,0.30
2023-10-06T16:11:47.477Z,0.30
2023-10-06T16:14:17.638Z,0.43
2023-10-06T16:16:47.611Z,0.30
2023-10-06T16:19:15.979Z,0.38
2023-10-06T16:21:44.063Z,0.30
2023-10-06T16:24:13.711Z,0.40
2023-10-06T16:26:42.226Z,0.50
2023-10-06T16:29:11.434Z,0.40
2023-10-06T16:31:39.998Z,0.70
2023-10-06T16:34:07.781Z,0.30
2023-10-06T16:36:36.319Z,0.70
2023-10-06T16:39:17.176Z,0.73
2023-10-06T16:41:45.815Z,4.85
2023-10-06T16:44:14.543Z,7.63
2023-10-06T16:46:43.138Z,7.78
2023-10-06T16:49:11.057Z,1.10
2023-10-06T16:51:40.831Z,3.58
2023-10-06T16:54:11.617Z,11.48
2023-10-06T16:56:40.039Z,4.22
2023-10-06T16:59:08.178Z,2.50
2023-10-06T17:01:36.230Z,1.30
2023-10-06T17:04:06.250Z,1.63
2023-10-06T17:06:34.864Z,1.20
2023-10-06T17:09:02.697Z,0.88
2023-10-06T17:11:30.643Z,0.60
2023-10-06T17:13:58.245Z,0.50
2023-10-06T17:16:26.888Z,0.40
2023-10-06T17:18:54.723Z,0.50
2023-10-06T17:21:22.368Z,1.20
2023-10-06T17:23:50.086Z,1.00
2023-10-06T17:26:17.772Z,0.80
2023-10-06T17:28:45.451Z,0.80
2023-10-06T17:31:19.892Z,0.50
2023-10-06T17:33:50.777Z,0.95
2023-10-06T17:36:19.866Z,1.52
2023-10-06T17:38:47.440Z,0.83
2023-10-06T17:41:17.670Z,0.70
2023-10-06T17:43:50.223Z,0.50
2023-10-06T17:46:18.799Z,0.50
2023-10-06T17:48:46.764Z,0.57
2023-10-06T17:51:20.529Z,0.70
2023-10-06T17:53:49.884Z,0.70
2023-10-06T17:56:19.221Z,0.50
2023-10-06T17:58:47.438Z,0.35
2023-10-06T18:01:17.384Z,0.30
2023-10-06T18:03:48.973Z,0.50
2023-10-06T18:06:17.145Z,0.40
2023-10-06T18:08:44.786Z,0.38
2023-10-06T18:11:12.488Z,0.40
2023-10-06T18:13:41.105Z,0.50
2023-10-06T18:16:09.705Z,0.53
2023-10-06T18:18:38.720Z,0.60
2023-10-06T18:21:06.530Z,0.60
2023-10-06T18:23:34.349Z,0.63
2023-10-06T18:26:01.975Z,0.63
2023-10-06T18:28:29.619Z,0.70
2023-10-06T18:30:57.377Z,0.90
2023-10-06T18:33:25.116Z,1.00
2023-10-06T18:35:52.789Z,0.73
2023-10-06T18:38:20.402Z,0.40
2023-10-06T18:40:57.433Z,0.50
2023-10-06T18:43:25.836Z,0.38
2023-10-06T18:45:56.920Z,0.60
2023-10-06T18:48:25.235Z,0.40
2023-10-06T18:51:02.056Z,0.70
2023-10-06T18:53:30.502Z,0.70
2023-10-06T18:55:59.049Z,0.60
2023-10-06T18:58:28.206Z,0.77
2023-10-06T19:00:56.942Z,2.40
2023-10-06T19:03:25.100Z,5.45
2023-10-06T19:06:04.629Z,1.73
2023-10-06T19:08:40.684Z,1.40
2023-10-06T19:11:14.508Z,4.13
2023-10-06T19:13:42.239Z,3.05
2023-10-06T19:16:13.586Z,4.50
2023-10-06T19:18:46.623Z,1.70
2023-10-06T19:21:15.423Z,2.17
2023-10-06T19:23:47.293Z,2.20
2023-10-06T19:26:20.297Z,1.85
2023-10-06T19:28:48.443Z,1.08
2023-10-06T19:31:17.373Z,0.80
2023-10-06T19:33:49.110Z,0.88
2023-10-06T19:36:16.865Z,0.50
2023-10-06T19:38:44.657Z,1.10
2023-10-06T19:41:14.410Z,1.17
2023-10-06T19:43:43.095Z,1.10
2023-10-06T19:46:11.738Z,1.20
2023-10-06T19:48:51.768Z,1.60
2023-10-06T19:51:19.626Z,1.63
2023-10-06T19:53:48.066Z,1.65
2023-10-06T19:56:15.826Z,1.50
2023-10-06T19:58:44.194Z,1.90
2023-10-06T20:01:12.581Z,1.80
2023-10-06T20:03:42.343Z,2.70
2023-10-06T20:06:10.061Z,2.22
2023-10-06T20:08:37.758Z,2.50
2023-10-06T20:11:05.791Z,1.95
2023-10-06T20:13:34.650Z,1.45
2023-10-06T20:16:10.931Z,1.15
2023-10-06T20:18:41.125Z,0.70
2023-10-06T20:21:13.290Z,0.70
2023-10-06T20:23:41.158Z,0.65
2023-10-06T20:26:08.774Z,0.60
2023-10-06T20:28:36.542Z,0.82
2023-10-06T20:31:05.473Z,0.95
2023-10-06T20:33:33.242Z,1.00
2023-10-06T20:36:01.566Z,1.00
2023-10-06T20:38:32.493Z,1.02
2023-10-06T20:41:00.284Z,1.00
2023-10-06T20:43:28.545Z,1.00
2023-10-06T20:45:58.182Z,1.10
2023-10-06T20:48:25.958Z,0.80
2023-10-06T20:50:53.642Z,0.88
2023-10-06T20:53:21.689Z,0.90
2023-10-06T20:55:49.450Z,0.80
2023-10-06T20:58:17.194Z,0.80
2023-10-06T21:00:44.898Z,0.80
2023-10-06T21:03:15.103Z,0.60
2023-10-06T21:05:45.122Z,0.80
2023-10-06T21:08:12.803Z,0.60
2023-10-06T21:10:40.477Z,0.70
2023-10-06T21:13:08.355Z,0.68
2023-10-06T21:15:36.069Z,0.80
2023-10-06T21:18:04.251Z,0.50
2023-10-06T21:20:31.994Z,0.55
2023-10-06T21:23:00.204Z,0.67
2023-10-06T21:25:27.910Z,0.80
2023-10-06T21:27:55.676Z,1.10
2023-10-06T21:30:23.240Z,0.75
2023-10-06T21:32:51.077Z,0.77
2023-10-06T21:35:19.329Z,0.60
2023-10-06T21:37:47.726Z,0.80
2023-10-06T21:40:15.453Z,1.17
2023-10-06T21:42:43.685Z,1.20
2023-10-06T21:45:11.754Z,1.05
2023-10-06T21:47:39.704Z,0.83
2023-10-06T21:50:07.637Z,0.60
2023-10-06T21:52:35.367Z,0.50
2023-10-06T21:55:03.541Z,0.40
2023-10-06T21:57:35.916Z,0.70
2023-10-06T22:00:18.377Z,0.40
2023-10-06T22:02:46.173Z,0.60
2023-10-06T22:05:17.373Z,0.43
2023-10-06T22:07:45.134Z,0.40
2023-10-06T22:10:16.711Z,0.50
2023-10-06T22:12:45.306Z,0.80
2023-10-06T22:15:14.741Z,1.30
2023-10-06T22:17:42.524Z,24.45
2023-10-06T22:20:10.730Z,25.75
2023-10-06T22:22:38.402Z,5.25
2023-10-06T22:25:06.373Z,1.83
2023-10-06T22:27:34.108Z,1.00
2023-10-06T22:30:01.736Z,0.85
2023-10-06T22:32:29.677Z,0.50
2023-10-06T22:34:57.509Z,0.38
2023-10-06T22:37:26.905Z,0.40
2023-10-06T22:39:54.643Z,0.35
2023-10-06T22:42:22.631Z,0.20
2023-10-06T22:44:51.408Z,0.22
2023-10-06T22:47:19.170Z,0.30
2023-10-06T22:49:47.090Z,0.20
2023-10-06T22:52:15.631Z,0.20
2023-10-06T22:54:46.436Z,0.40
2023-10-06T22:57:14.105Z,0.30
2023-10-06T22:59:41.732Z,0.22
2023-10-06T23:02:11.011Z,0.30
2023-10-06T23:04:38.641Z,0.20
2023-10-06T23:07:06.291Z,0.20
2023-10-06T23:09:36.592Z,0.20
2023-10-06T23:12:05.974Z,0.30
2023-10-06T23:14:33.683Z,0.20
2023-10-06T23:17:02.573Z,0.20
2023-10-06T23:19:35.220Z,0.20
2023-10-06T23:22:03.483Z,0.20
2023-10-06T23:24:49.302Z,0.20
2023-10-06T23:27:22.035Z,0.20
2023-10-06T23:29:51.107Z,0.20
2023-10-06T23:32:18.917Z,0.20
2023-10-06T23:34:47.056Z,0.13
2023-10-06T23:37:17.532Z,0.10
2023-10-06T23:39:47.719Z,0.10
2023-10-06T23:42:25.284Z,0.20
2023-10-06T23:44:52.993Z,0.10
2023-10-06T23:47:24.158Z,0.10
2023-10-06T23:49:56.618Z,0.20
2023-10-06T23:52:24.372Z,0.10
2023-10-06T23:54:55.008Z,0.20
2023-10-06T23:57:22.970Z,0.10
2023-10-06T23:59:50.584Z,0.10
